createdAt,value
2024-02-27T00:01:55.249Z,8.5
2024-02-27T00:04:21.342Z,8.5
2024-02-27T00:06:47.161Z,8.5
2024-02-27T00:09:13.670Z,8.5
2024-02-27T00:11:39.331Z,8.4
2024-02-27T00:14:05.769Z,8.4
2024-02-27T00:16:31.849Z,8.4
2024-02-27T00:18:57.974Z,8.4
2024-02-27T00:21:22.929Z,8.4
2024-02-27T00:23:49.152Z,8.4
2024-02-27T00:26:14.929Z,8.4
2024-02-27T00:28:41.316Z,8.5
2024-02-27T00:31:07.115Z,8.5
2024-02-27T00:33:33.481Z,8.5
2024-02-27T00:35:59.468Z,8.5
2024-02-27T00:38:25.703Z,8.4
2024-02-27T00:40:51.778Z,8.4
2024-02-27T00:43:17.919Z,8.4
2024-02-27T00:45:44.028Z,8.4
2024-02-27T00:48:09.877Z,8.4
2024-02-27T00:50:36.236Z,8.4
2024-02-27T00:53:01.214Z,8.4
2024-02-27T00:55:27.434Z,8.4
2024-02-27T00:57:53.553Z,8.4
2024-02-27T01:00:19.538Z,8.4
2024-02-27T01:02:45.690Z,8.3
2024-02-27T01:05:11.539Z,8.3
2024-02-27T01:07:37.845Z,8.3
2024-02-27T01:10:03.904Z,8.3
2024-02-27T01:12:30.037Z,8.3
2024-02-27T01:14:56.174Z,8.3
2024-02-27T01:17:22.278Z,8.3
2024-02-27T01:19:48.035Z,8.3
2024-02-27T01:22:14.341Z,8.2
2024-02-27T01:24:40.662Z,8.3
2024-02-27T01:27:06.673Z,8.3
2024-02-27T01:29:31.737Z,8.3
2024-02-27T01:31:57.817Z,8.3
2024-02-27T01:34:23.975Z,8.3
2024-02-27T01:36:50.058Z,8.3
2024-02-27T01:39:16.175Z,8.3
2024-02-27T01:41:42.152Z,8.3
2024-02-27T01:44:08.247Z,8.3
2024-02-27T01:46:34.422Z,8.4
2024-02-27T01:49:00.527Z,8.4
2024-02-27T01:51:26.564Z,8.4
2024-02-27T01:53:52.592Z,8.4
2024-02-27T01:56:18.784Z,8.3
2024-02-27T01:58:44.962Z,8.3
2024-02-27T02:01:09.996Z,8.3
2024-02-27T02:03:36.090Z,8.3
2024-02-27T02:06:02.152Z,8.3
2024-02-27T02:08:28.235Z,8.3
2024-02-27T02:10:54.348Z,8.4
2024-02-27T02:13:20.492Z,8.4
2024-02-27T02:15:46.567Z,8.3
2024-02-27T02:18:12.580Z,8.3
2024-02-27T02:20:38.751Z,8.3
2024-02-27T02:23:04.917Z,8.3
2024-02-27T02:25:30.954Z,8.3
2024-02-27T02:27:57.118Z,8.4
2024-02-27T02:30:23.051Z,8.4
2024-02-27T02:32:47.952Z,8.4
2024-02-27T02:35:14.362Z,8.4
2024-02-27T02:37:40.405Z,8.4
2024-02-27T02:40:06.626Z,8.4
2024-02-27T02:42:32.587Z,8.5
2024-02-27T02:44:58.681Z,8.6
2024-02-27T02:47:24.814Z,8.6
2024-02-27T02:49:50.958Z,8.6
2024-02-27T02:52:17.030Z,8.6
2024-02-27T02:54:43.087Z,8.7
2024-02-27T02:57:09.073Z,8.7
2024-02-27T02:59:35.369Z,8.7
2024-02-27T03:02:01.074Z,8.7
2024-02-27T03:04:26.416Z,8.6
2024-02-27T03:06:52.608Z,8.6
2024-02-27T03:09:18.472Z,8.6
2024-02-27T03:11:44.478Z,8.5
2024-02-27T03:14:10.581Z,8.5
2024-02-27T03:16:36.660Z,8.4
2024-02-27T03:19:02.985Z,8.4
2024-02-27T03:21:28.982Z,8.4
2024-02-27T03:23:54.946Z,8.4
2024-02-27T03:26:21.353Z,8.4
2024-02-27T03:28:47.502Z,8.4
2024-02-27T03:31:13.244Z,8.3
2024-02-27T03:33:39.655Z,8.3
2024-02-27T03:36:04.779Z,8.2
2024-02-27T03:38:30.909Z,8.2
2024-02-27T03:40:56.726Z,8.2
2024-02-27T03:43:22.949Z,8.1
2024-02-27T03:45:49.138Z,8.1
2024-02-27T03:48:15.220Z,8
2024-02-27T03:50:41.332Z,8
2024-02-27T03:53:06.442Z,8
2024-02-27T03:55:32.569Z,8
2024-02-27T03:57:58.658Z,7.9
2024-02-27T04:00:24.797Z,7.9
2024-02-27T04:02:50.842Z,7.9
2024-02-27T04:05:17.067Z,7.9
2024-02-27T04:07:43.119Z,7.9
2024-02-27T04:10:09.180Z,7.9
2024-02-27T04:12:35.341Z,7.9
2024-02-27T04:15:01.390Z,7.9
2024-02-27T04:17:27.471Z,8
2024-02-27T04:19:53.412Z,8
2024-02-27T04:22:19.430Z,8.1
2024-02-27T04:24:44.389Z,8.2
2024-02-27T04:27:10.628Z,8.3
2024-02-27T04:29:36.607Z,8.3
2024-02-27T04:32:02.695Z,8.3
2024-02-27T04:34:28.786Z,8.3
2024-02-27T04:36:54.887Z,8.3
2024-02-27T04:39:20.973Z,8.3
2024-02-27T04:41:47.380Z,8.2
2024-02-27T04:44:13.153Z,8.2
2024-02-27T04:46:39.235Z,8.3
2024-02-27T04:49:05.342Z,8.2
2024-02-27T04:51:31.423Z,8.3
2024-02-27T04:53:57.660Z,8.3
2024-02-27T04:56:22.802Z,8.3
2024-02-27T04:58:48.776Z,8.4
2024-02-27T05:01:14.831Z,8.4
2024-02-27T05:03:41.254Z,8.4
2024-02-27T05:06:07.304Z,8.4
2024-02-27T05:08:33.346Z,8.4
2024-02-27T05:10:59.402Z,8.5
2024-02-27T05:13:25.686Z,8.5
2024-02-27T05:15:51.602Z,8.5
2024-02-27T05:18:17.547Z,8.5
2024-02-27T05:20:43.719Z,8.5
2024-02-27T05:23:09.904Z,8.4
2024-02-27T05:25:35.802Z,8.5
2024-02-27T05:28:01.036Z,8.5
2024-02-27T05:30:27.064Z,8.5
2024-02-27T05:32:53.309Z,8.5
2024-02-27T05:35:19.190Z,8.5
2024-02-27T05:37:45.289Z,8.5
2024-02-27T05:40:11.396Z,8.4
2024-02-27T05:42:37.604Z,8.4
2024-02-27T05:45:03.589Z,8.4
2024-02-27T05:47:29.644Z,8.4
2024-02-27T05:49:55.818Z,8.4
2024-02-27T05:52:21.831Z,8.4
2024-02-27T05:54:47.930Z,8.4
2024-02-27T05:57:14.257Z,8.4
2024-02-27T05:59:39.149Z,8.4
2024-02-27T06:02:05.316Z,8.3
2024-02-27T06:04:31.594Z,8.3
2024-02-27T06:06:57.444Z,8.3
2024-02-27T06:09:23.533Z,8.3
2024-02-27T06:11:49.827Z,8.3
2024-02-27T06:14:16.018Z,8.3
2024-02-27T06:16:42.010Z,8.3
2024-02-27T06:19:08.010Z,8.3
2024-02-27T06:21:34.112Z,8.3
2024-02-27T06:24:00.203Z,8.3
2024-02-27T06:26:26.207Z,8.3
2024-02-27T06:28:52.348Z,8.3
2024-02-27T06:31:17.715Z,8.3
2024-02-27T06:33:43.596Z,8.2
2024-02-27T06:36:09.808Z,8.2
2024-02-27T06:38:35.796Z,8.2
2024-02-27T06:41:01.919Z,8.2
2024-02-27T06:43:28.252Z,8.1
2024-02-27T06:45:54.199Z,8.1
2024-02-27T06:48:20.149Z,8.1
2024-02-27T06:50:46.241Z,8.1
2024-02-27T06:53:12.493Z,8.2
2024-02-27T06:55:38.559Z,8.3
2024-02-27T06:58:04.735Z,8.3
2024-02-27T07:00:30.805Z,8.3
2024-02-27T07:02:55.657Z,8.4
2024-02-27T07:05:22.035Z,8.4
2024-02-27T07:07:48.075Z,8.5
2024-02-27T07:10:14.241Z,8.5
2024-02-27T07:12:40.321Z,8.5
2024-02-27T07:15:06.275Z,8.5
2024-02-27T07:17:32.294Z,8.5
2024-02-27T07:19:58.633Z,8.5
2024-02-27T07:22:24.637Z,8.6
2024-02-27T07:24:50.562Z,8.6
2024-02-27T07:27:16.953Z,8.6
2024-02-27T07:29:42.734Z,8.7
2024-02-27T07:32:09.067Z,8.7
2024-02-27T07:34:34.237Z,8.7
2024-02-27T07:37:00.125Z,8.7
2024-02-27T07:39:26.219Z,8.7
2024-02-27T07:41:52.495Z,8.8
2024-02-27T07:44:18.447Z,8.8
2024-02-27T07:46:44.480Z,8.9
2024-02-27T07:49:10.643Z,8.9
2024-02-27T07:51:36.676Z,8.9
2024-02-27T07:54:02.950Z,8.9
2024-02-27T07:56:28.835Z,9
2024-02-27T07:58:54.844Z,9
2024-02-27T08:01:20.957Z,9.1
2024-02-27T08:03:47.228Z,9.1
2024-02-27T08:06:13.359Z,9.1
2024-02-27T08:08:39.481Z,9.2
2024-02-27T08:11:04.352Z,9.3
2024-02-27T08:13:30.455Z,9.4
2024-02-27T08:15:56.733Z,9.5
2024-02-27T08:18:22.950Z,9.6
2024-02-27T08:20:48.856Z,9.7
2024-02-27T08:23:15.036Z,9.8
2024-02-27T08:25:41.114Z,9.8
2024-02-27T08:28:07.148Z,9.8
2024-02-27T08:30:33.199Z,9.8
2024-02-27T08:32:59.570Z,9.9
2024-02-27T08:35:25.435Z,9.9
2024-02-27T08:37:51.721Z,9.9
2024-02-27T08:40:17.765Z,10
2024-02-27T08:42:42.638Z,9.9
2024-02-27T08:45:08.681Z,10
2024-02-27T08:47:35.118Z,10.1
2024-02-27T08:50:01.122Z,10
2024-02-27T08:52:27.233Z,10.1
2024-02-27T08:54:53.422Z,10.1
2024-02-27T08:57:19.364Z,10.1
2024-02-27T08:59:45.527Z,10.2
2024-02-27T09:02:11.648Z,10.3
2024-02-27T09:04:37.708Z,10.4
2024-02-27T09:07:03.646Z,10.3
2024-02-27T09:09:29.636Z,10.2
2024-02-27T09:11:55.919Z,10.1
2024-02-27T09:14:20.997Z,10.1
2024-02-27T09:16:47.056Z,10.1
2024-02-27T09:19:13.096Z,10
2024-02-27T09:21:39.248Z,10.1
2024-02-27T09:24:05.291Z,10.1
2024-02-27T09:26:31.426Z,10.1
2024-02-27T09:28:57.468Z,10.1
2024-02-27T09:31:23.537Z,10.1
2024-02-27T09:33:49.640Z,10
2024-02-27T09:36:15.702Z,10
2024-02-27T09:38:41.787Z,10.2
2024-02-27T09:41:07.893Z,10.4
2024-02-27T09:43:34.197Z,10.5
2024-02-27T09:45:59.104Z,10.4
2024-02-27T09:48:25.171Z,10.5
2024-02-27T09:50:51.299Z,10.5
2024-02-27T09:53:17.371Z,10.1
2024-02-27T09:55:43.571Z,10.1
2024-02-27T09:58:09.567Z,10.2
2024-02-27T10:00:35.649Z,10.3
2024-02-27T10:03:01.764Z,10.4
2024-02-27T10:05:27.881Z,10.6
2024-02-27T10:07:54.031Z,10.6
2024-02-27T10:10:20.152Z,10.5
2024-02-27T10:12:46.120Z,10.6
2024-02-27T10:15:12.324Z,10.8
2024-02-27T10:17:37.339Z,10.9
2024-02-27T10:20:03.454Z,10.8
2024-02-27T10:22:29.525Z,10.9
2024-02-27T10:24:55.598Z,10.8
2024-02-27T10:27:21.708Z,10.8
2024-02-27T10:29:47.791Z,10.7
2024-02-27T10:32:13.917Z,10.8
2024-02-27T10:34:39.985Z,10.8
2024-02-27T10:37:06.259Z,10.8
2024-02-27T10:39:32.187Z,10.7
2024-02-27T10:41:58.314Z,10.8
2024-02-27T10:44:24.431Z,10.7
2024-02-27T10:46:50.594Z,10.8
2024-02-27T10:49:15.815Z,10.8
2024-02-27T10:51:41.777Z,10.6
2024-02-27T10:54:07.763Z,10.5
2024-02-27T10:56:34.097Z,10.7
2024-02-27T10:59:00.076Z,10.7
2024-02-27T11:01:26.129Z,10.8
2024-02-27T11:03:52.354Z,10.9
2024-02-27T11:06:18.356Z,11.1
2024-02-27T11:08:44.447Z,11.1
2024-02-27T11:11:10.419Z,11.3
2024-02-27T11:13:36.612Z,11.4
2024-02-27T11:16:02.714Z,11.7
2024-02-27T11:18:28.730Z,11.7
2024-02-27T11:20:53.941Z,11.9
2024-02-27T11:23:20.132Z,12
2024-02-27T11:25:46.303Z,12
2024-02-27T11:28:12.283Z,11.8
2024-02-27T11:30:38.393Z,11.6
2024-02-27T11:33:04.301Z,11.5
2024-02-27T11:35:30.438Z,11.8
2024-02-27T11:37:56.515Z,12.2
2024-02-27T11:40:22.763Z,12.4
2024-02-27T11:42:48.672Z,12.5
2024-02-27T11:45:14.846Z,12.5
2024-02-27T11:47:40.849Z,12.7
2024-02-27T11:50:06.967Z,12.7
2024-02-27T11:52:32.072Z,12.6
2024-02-27T11:54:58.168Z,12.6
2024-02-27T11:57:24.260Z,12.6
2024-02-27T11:59:50.462Z,12.5
2024-02-27T12:02:15.488Z,12.6
2024-02-27T12:04:41.706Z,12.8
2024-02-27T12:07:07.764Z,12.6
2024-02-27T12:09:33.786Z,12.2
2024-02-27T12:12:00.007Z,12.1
2024-02-27T12:14:25.985Z,12.3
2024-02-27T12:16:52.216Z,12.4
2024-02-27T12:19:18.155Z,12.7
2024-02-27T12:21:44.305Z,12.8
2024-02-27T12:24:10.328Z,12.9
2024-02-27T12:26:36.424Z,12.9
2024-02-27T12:29:02.622Z,12.9
2024-02-27T12:31:28.612Z,12.6
2024-02-27T12:33:53.716Z,12.2
2024-02-27T12:36:19.866Z,12.1
2024-02-27T12:38:45.985Z,12.2
2024-02-27T12:41:12.044Z,12.3
2024-02-27T12:43:38.255Z,12.5
2024-02-27T12:46:04.191Z,13
2024-02-27T12:48:30.326Z,13.3
2024-02-27T12:50:56.425Z,13.2
2024-02-27T12:53:22.455Z,13.7
2024-02-27T12:55:48.570Z,13.7
2024-02-27T12:58:14.700Z,13.6
2024-02-27T13:00:40.756Z,13.2
2024-02-27T13:03:06.952Z,13.2
2024-02-27T13:05:31.969Z,12.8
2024-02-27T13:07:58.118Z,12.9
2024-02-27T13:10:24.213Z,13.1
2024-02-27T13:12:50.257Z,13.2
2024-02-27T13:15:16.349Z,13.3
2024-02-27T13:17:42.449Z,13
2024-02-27T13:20:08.517Z,13.1
2024-02-27T13:22:34.722Z,12.9
2024-02-27T13:25:00.841Z,13
2024-02-27T13:27:26.963Z,13
2024-02-27T13:29:53.000Z,13.1
2024-02-27T13:32:19.195Z,13.3
2024-02-27T13:34:45.306Z,13.3
2024-02-27T13:37:10.265Z,13.2
2024-02-27T13:39:36.440Z,13.1
2024-02-27T13:42:02.563Z,13.3
2024-02-27T13:44:28.622Z,13.3
2024-02-27T13:46:54.737Z,13.1
2024-02-27T13:49:20.874Z,13.2
2024-02-27T13:51:46.767Z,13.2
2024-02-27T13:54:13.039Z,13.4
2024-02-27T13:56:39.083Z,13.4
2024-02-27T13:59:05.099Z,13.4
2024-02-27T14:01:31.212Z,13.6
2024-02-27T14:03:57.294Z,13.6
2024-02-27T14:06:23.363Z,13.4
2024-02-27T14:08:48.501Z,13.2
2024-02-27T14:11:14.546Z,13.1
2024-02-27T14:13:40.673Z,13.2
2024-02-27T14:16:06.737Z,12.9
2024-02-27T14:18:32.852Z,12.8
2024-02-27T14:20:58.957Z,12.8
2024-02-27T14:23:25.034Z,12.9
2024-02-27T14:25:51.127Z,12.8
2024-02-27T14:28:17.218Z,12.8
2024-02-27T14:30:43.378Z,12.8
2024-02-27T14:33:09.405Z,12.7
2024-02-27T14:35:35.507Z,12.5
2024-02-27T14:38:01.630Z,12.7
2024-02-27T14:40:26.736Z,12.9
2024-02-27T14:42:52.812Z,13.1
2024-02-27T14:45:18.904Z,12.8
2024-02-27T14:47:45.009Z,12.5
2024-02-27T14:50:11.092Z,12.6
2024-02-27T14:52:37.181Z,12.7
2024-02-27T14:55:03.273Z,12.4
2024-02-27T14:57:29.386Z,12.4
2024-02-27T14:59:55.479Z,12.4
2024-02-27T15:02:21.570Z,12.5
2024-02-27T15:04:47.750Z,12.6
2024-02-27T15:07:13.760Z,12.7
2024-02-27T15:09:39.930Z,12.6
2024-02-27T15:12:05.032Z,12.5
2024-02-27T15:14:31.068Z,12.6
2024-02-27T15:16:57.157Z,12.5
2024-02-27T15:19:23.262Z,12.2
2024-02-27T15:21:49.347Z,12.2
2024-02-27T15:24:15.428Z,12.2
2024-02-27T15:26:41.541Z,12.2
2024-02-27T15:29:07.654Z,12.3
2024-02-27T15:31:33.729Z,12.3
2024-02-27T15:33:59.827Z,12.3
2024-02-27T15:36:25.980Z,12.3
2024-02-27T15:38:52.006Z,12.2
2024-02-27T15:41:18.082Z,12.1
2024-02-27T15:43:43.264Z,12.1
2024-02-27T15:46:09.298Z,12.1
2024-02-27T15:48:35.432Z,12.2
2024-02-27T15:51:01.494Z,12.2
2024-02-27T15:53:27.595Z,12.2
2024-02-27T15:55:53.699Z,12.2
2024-02-27T15:58:19.770Z,12.2
2024-02-27T16:00:45.849Z,12.2
2024-02-27T16:03:11.958Z,12.1
2024-02-27T16:05:38.073Z,11.9
2024-02-27T16:08:04.154Z,11.8
2024-02-27T16:10:30.242Z,11.8
2024-02-27T16:12:56.333Z,11.8
2024-02-27T16:15:21.424Z,11.8
2024-02-27T16:17:47.716Z,11.7
2024-02-27T16:20:13.653Z,11.7
2024-02-27T16:22:39.749Z,11.7
2024-02-27T16:25:05.825Z,11.7
2024-02-27T16:27:31.912Z,11.7
2024-02-27T16:29:58.013Z,11.6
2024-02-27T16:32:24.119Z,11.5
2024-02-27T16:34:50.200Z,11.5
2024-02-27T16:37:16.321Z,11.5
2024-02-27T16:39:42.488Z,11.5
2024-02-27T16:42:08.504Z,11.5
2024-02-27T16:44:34.608Z,11.4
2024-02-27T16:46:59.694Z,11.4
2024-02-27T16:49:25.799Z,11.4
2024-02-27T16:51:51.888Z,11.3
2024-02-27T16:54:17.977Z,11.3
2024-02-27T16:56:44.071Z,11.2
2024-02-27T16:59:10.169Z,11.2
2024-02-27T17:01:36.261Z,11.1
2024-02-27T17:04:02.361Z,11.1
2024-02-27T17:06:28.445Z,11.1
2024-02-27T17:08:54.552Z,11
2024-02-27T17:11:20.662Z,11
2024-02-27T17:13:46.743Z,10.9
2024-02-27T17:16:12.853Z,10.9
2024-02-27T17:18:37.957Z,10.8
2024-02-27T17:21:04.076Z,10.8
2024-02-27T17:23:30.132Z,10.7
2024-02-27T17:25:56.235Z,10.7
2024-02-27T17:28:22.323Z,10.6
2024-02-27T17:30:48.436Z,10.5
2024-02-27T17:33:14.526Z,10.5
2024-02-27T17:35:40.685Z,10.5
2024-02-27T17:38:06.698Z,10.5
2024-02-27T17:40:32.806Z,10.4
2024-02-27T17:42:58.882Z,10.4
2024-02-27T17:45:24.990Z,10.4
2024-02-27T17:47:51.071Z,10.4
2024-02-27T17:50:16.200Z,10.3
2024-02-27T17:52:42.277Z,10.3
2024-02-27T17:55:08.391Z,10.3
2024-02-27T17:57:34.474Z,10.2
2024-02-27T18:00:00.567Z,10.1
2024-02-27T18:02:26.670Z,10
2024-02-27T18:04:52.758Z,9.9
2024-02-27T18:07:18.857Z,9.9
2024-02-27T18:09:44.969Z,9.8
2024-02-27T18:12:11.040Z,9.8
2024-02-27T18:14:37.127Z,9.7
2024-02-27T18:17:03.239Z,9.7
2024-02-27T18:19:29.315Z,9.7
2024-02-27T18:21:54.441Z,9.6
2024-02-27T18:24:20.532Z,9.6
2024-02-27T18:26:46.618Z,9.5
2024-02-27T18:29:12.752Z,9.6
2024-02-27T18:31:38.833Z,9.6
2024-02-27T18:34:04.972Z,9.5
2024-02-27T18:36:31.017Z,9.5
2024-02-27T18:38:57.141Z,9.5
2024-02-27T18:41:23.203Z,9.4
2024-02-27T18:43:49.293Z,9.4
2024-02-27T18:46:15.368Z,9.3
2024-02-27T18:48:41.477Z,9.3
2024-02-27T18:51:07.607Z,9.2
2024-02-27T18:53:32.674Z,9.2
2024-02-27T18:55:58.853Z,9.1
2024-02-27T18:58:24.874Z,9.1
2024-02-27T19:00:50.968Z,9.1
2024-02-27T19:05:43.160Z,9
2024-02-27T19:08:09.244Z,9
2024-02-27T19:10:35.362Z,9
2024-02-27T19:13:01.476Z,9
2024-02-27T19:15:27.538Z,9
2024-02-27T19:17:53.614Z,9
2024-02-27T19:20:19.720Z,8.9
2024-02-27T19:22:45.915Z,8.9
2024-02-27T19:25:10.923Z,8.9
2024-02-27T19:27:37.013Z,8.9
2024-02-27T19:30:03.128Z,8.9
2024-02-27T19:32:29.227Z,8.9
2024-02-27T19:34:55.364Z,8.8
2024-02-27T19:37:21.408Z,8.8
2024-02-27T19:39:47.536Z,8.8
2024-02-27T19:42:13.612Z,8.8
2024-02-27T19:44:39.797Z,8.8
2024-02-27T19:47:05.973Z,8.8
2024-02-27T19:49:31.964Z,8.8
2024-02-27T19:51:58.101Z,8.7
2024-02-27T19:54:24.059Z,8.6
2024-02-27T19:56:49.258Z,8.5
2024-02-27T19:59:15.279Z,8.4
2024-02-27T20:01:41.365Z,8.3
2024-02-27T20:04:07.507Z,8.3
2024-02-27T20:06:33.576Z,8.3
2024-02-27T20:08:59.660Z,8.2
2024-02-27T20:11:24.777Z,8.2
2024-02-27T20:13:50.853Z,8.3
2024-02-27T20:16:16.949Z,8.3
2024-02-27T20:21:09.138Z,8.3
2024-02-27T20:23:35.252Z,8.3
2024-02-27T20:26:01.374Z,8.5
2024-02-27T20:28:27.461Z,8.5
2024-02-27T20:30:53.533Z,8.6
2024-02-27T20:33:19.647Z,8.5
2024-02-27T20:35:45.813Z,8.5
2024-02-27T20:38:11.823Z,8.4
2024-02-27T20:40:37.909Z,8.3
2024-02-27T20:43:03.001Z,8.2
2024-02-27T20:45:29.123Z,8.1
2024-02-27T20:47:55.215Z,8
2024-02-27T20:50:21.326Z,7.9
2024-02-27T20:52:47.405Z,7.8
2024-02-27T20:55:13.508Z,7.7
2024-02-27T20:57:39.619Z,7.6
2024-02-27T21:00:05.728Z,7.5
2024-02-27T21:02:31.835Z,7.4
2024-02-27T21:04:57.932Z,7.4
2024-02-27T21:07:24.080Z,7.4
2024-02-27T21:09:50.124Z,7.4
2024-02-27T21:12:16.227Z,7.3
2024-02-27T21:14:42.579Z,7.3
2024-02-27T21:17:08.397Z,7.2
2024-02-27T21:19:34.494Z,7.2
2024-02-27T21:22:00.576Z,7.1
2024-02-27T21:24:26.669Z,7.4
2024-02-27T21:26:52.764Z,7.3
2024-02-27T21:29:17.879Z,7.3
2024-02-27T21:31:43.983Z,7.2
2024-02-27T21:34:10.064Z,7.2
2024-02-27T21:36:36.193Z,7.1
2024-02-27T21:39:02.266Z,7
2024-02-27T21:41:28.349Z,7
2024-02-27T21:43:54.526Z,7
2024-02-27T21:46:20.536Z,6.9
2024-02-27T21:48:46.626Z,6.9
2024-02-27T21:51:12.771Z,7
2024-02-27T21:53:38.839Z,7
2024-02-27T21:56:04.978Z,7.1
2024-02-27T21:58:31.009Z,7.1
2024-02-27T22:00:56.295Z,7.1
2024-02-27T22:03:22.247Z,7.2
2024-02-27T22:05:48.329Z,7.2
2024-02-27T22:08:14.403Z,7.3
2024-02-27T22:10:40.541Z,7.3
2024-02-27T22:13:06.604Z,7.4
2024-02-27T22:15:32.787Z,7.4
2024-02-27T22:17:58.885Z,7.4
2024-02-27T22:20:24.908Z,7.5
2024-02-27T22:22:50.968Z,7.5
2024-02-27T22:25:17.131Z,7.6
2024-02-27T22:27:43.201Z,7.6
2024-02-27T22:30:09.257Z,7.6
2024-02-27T22:32:34.402Z,7.6
2024-02-27T22:35:00.475Z,7.6
2024-02-27T22:37:26.577Z,7.7
2024-02-27T22:39:52.661Z,7.7
2024-02-27T22:42:18.737Z,7.7
2024-02-27T22:44:44.981Z,7.8
2024-02-27T22:47:10.940Z,7.8
2024-02-27T22:49:37.047Z,7.8
2024-02-27T22:52:03.176Z,7.8
2024-02-27T22:54:29.246Z,7.8
2024-02-27T22:56:55.435Z,7.9
2024-02-27T22:59:21.598Z,8
2024-02-27T23:01:47.657Z,8
2024-02-27T23:04:12.635Z,8.1
2024-02-27T23:06:38.742Z,8.2
2024-02-27T23:09:04.803Z,8.2
2024-02-27T23:11:30.942Z,8.3
2024-02-27T23:13:57.002Z,8.3
2024-02-27T23:16:23.240Z,8.4
2024-02-27T23:18:49.190Z,8.4
2024-02-27T23:21:15.282Z,8.4
2024-02-27T23:23:41.376Z,8.4
2024-02-27T23:26:07.479Z,8.4
2024-02-27T23:28:33.582Z,8.4
2024-02-27T23:30:59.673Z,8.4
2024-02-27T23:33:25.768Z,8.4
2024-02-27T23:35:50.868Z,8.4
2024-02-27T23:38:16.965Z,8.4
2024-02-27T23:40:43.075Z,8.4
2024-02-27T23:43:09.151Z,8.4
2024-02-27T23:45:35.253Z,8.4
2024-02-27T23:48:01.345Z,8.4
2024-02-27T23:50:27.445Z,8.4
2024-02-27T23:52:53.560Z,8.4
2024-02-27T23:55:19.646Z,8.4
2024-02-27T23:57:45.736Z,8.4
